sensor_id;sensor_type;location;lat;lon;timestamp;temperature;humidity
435;DHT22;204;48.942;9.256;2023-07-20T00:01:23;20.60;99.90
435;DHT22;204;48.942;9.256;2023-07-20T00:03:49;20.60;99.90
435;DHT22;204;48.942;9.256;2023-07-20T00:06:23;20.50;99.90
435;DHT22;204;48.942;9.256;2023-07-20T00:08:50;20.40;99.90
435;DHT22;204;48.942;9.256;2023-07-20T00:11:16;20.40;99.90
435;DHT22;204;48.942;9.256;2023-07-20T00:13:41;20.30;99.90
435;DHT22;204;48.942;9.256;2023-07-20T00:16:07;20.30;99.90
435;DHT22;204;48.942;9.256;2023-07-20T00:18:32;20.30;99.90
435;DHT22;204;48.942;9.256;2023-07-20T00:20:58;20.30;99.90
435;DHT22;204;48.942;9.256;2023-07-20T00:23:25;20.20;99.90
435;DHT22;204;48.942;9.256;2023-07-20T00:25:51;20.20;99.90
435;DHT22;204;48.942;9.256;2023-07-20T00:28:17;20.20;99.90
435;DHT22;204;48.942;9.256;2023-07-20T00:30:42;20.10;99.90
435;DHT22;204;48.942;9.256;2023-07-20T00:33:11;20.10;99.90
435;DHT22;204;48.942;9.256;2023-07-20T00:35:37;20.00;99.90
435;DHT22;204;48.942;9.256;2023-07-20T00:38:03;20.00;99.90
435;DHT22;204;48.942;9.256;2023-07-20T00:40:36;19.90;99.90
435;DHT22;204;48.942;9.256;2023-07-20T00:43:01;19.90;99.90
435;DHT22;204;48.942;9.256;2023-07-20T00:45:27;19.80;99.90
435;DHT22;204;48.942;9.256;2023-07-20T00:47:53;19.70;99.90
435;DHT22;204;48.942;9.256;2023-07-20T00:50:19;19.70;99.90
435;DHT22;204;48.942;9.256;2023-07-20T00:52:44;19.60;99.90
435;DHT22;204;48.942;9.256;2023-07-20T00:55:10;19.60;99.90
435;DHT22;204;48.942;9.256;2023-07-20T00:57:36;19.50;99.90
435;DHT22;204;48.942;9.256;2023-07-20T01:00:02;19.40;99.90
435;DHT22;204;48.942;9.256;2023-07-20T01:02:28;19.30;99.90
435;DHT22;204;48.942;9.256;2023-07-20T01:04:54;19.30;99.90
435;DHT22;204;48.942;9.256;2023-07-20T01:07:30;19.20;99.90
435;DHT22;204;48.942;9.256;2023-07-20T01:13:03;19.10;99.90
435;DHT22;204;48.942;9.256;2023-07-20T01:15:33;19.00;99.90
435;DHT22;204;48.942;9.256;2023-07-20T01:17:59;19.00;99.90
435;DHT22;204;48.942;9.256;2023-07-20T01:20:26;18.90;99.90
435;DHT22;204;48.942;9.256;2023-07-20T01:31:32;18.60;99.90
435;DHT22;204;48.942;9.256;2023-07-20T01:34:01;18.50;99.90
435;DHT22;204;48.942;9.256;2023-07-20T01:36:30;18.50;99.90
435;DHT22;204;48.942;9.256;2023-07-20T01:38:56;18.40;99.90
435;DHT22;204;48.942;9.256;2023-07-20T01:41:22;18.30;99.90
435;DHT22;204;48.942;9.256;2023-07-20T01:43:48;18.30;99.90
435;DHT22;204;48.942;9.256;2023-07-20T01:46:14;18.20;99.90
435;DHT22;204;48.942;9.256;2023-07-20T01:48:39;18.20;99.90
435;DHT22;204;48.942;9.256;2023-07-20T01:51:05;18.10;99.90
435;DHT22;204;48.942;9.256;2023-07-20T01:53:30;18.10;99.90
435;DHT22;204;48.942;9.256;2023-07-20T01:55:57;18.00;99.90
435;DHT22;204;48.942;9.256;2023-07-20T01:58:22;17.90;99.90
435;DHT22;204;48.942;9.256;2023-07-20T02:00:48;17.90;99.90
435;DHT22;204;48.942;9.256;2023-07-20T02:03:14;17.80;99.90
435;DHT22;204;48.942;9.256;2023-07-20T02:05:39;17.70;99.90
435;DHT22;204;48.942;9.256;2023-07-20T02:08:05;17.60;99.90
435;DHT22;204;48.942;9.256;2023-07-20T02:10:30;17.60;99.90
435;DHT22;204;48.942;9.256;2023-07-20T02:12:56;17.50;99.90
435;DHT22;204;48.942;9.256;2023-07-20T02:15:22;17.50;99.90
435;DHT22;204;48.942;9.256;2023-07-20T02:17:47;17.40;99.90
435;DHT22;204;48.942;9.256;2023-07-20T02:20:13;17.40;99.90
435;DHT22;204;48.942;9.256;2023-07-20T02:22:39;17.30;99.90
435;DHT22;204;48.942;9.256;2023-07-20T02:25:06;17.30;99.90
435;DHT22;204;48.942;9.256;2023-07-20T02:27:33;17.20;99.90
435;DHT22;204;48.942;9.256;2023-07-20T02:29:58;17.20;99.90
435;DHT22;204;48.942;9.256;2023-07-20T02:32:24;17.10;99.90
435;DHT22;204;48.942;9.256;2023-07-20T02:34:50;17.10;99.90
435;DHT22;204;48.942;9.256;2023-07-20T02:37:16;17.10;99.90
435;DHT22;204;48.942;9.256;2023-07-20T02:39:42;17.00;99.90
435;DHT22;204;48.942;9.256;2023-07-20T02:42:08;16.90;99.90
435;DHT22;204;48.942;9.256;2023-07-20T02:44:33;16.90;99.90
435;DHT22;204;48.942;9.256;2023-07-20T02:46:59;16.80;99.90
435;DHT22;204;48.942;9.256;2023-07-20T02:49:24;16.90;99.90
435;DHT22;204;48.942;9.256;2023-07-20T02:51:50;16.80;99.90
435;DHT22;204;48.942;9.256;2023-07-20T02:54:15;16.80;99.90
435;DHT22;204;48.942;9.256;2023-07-20T02:56:41;16.70;99.90
435;DHT22;204;48.942;9.256;2023-07-20T02:59:07;16.70;99.90
435;DHT22;204;48.942;9.256;2023-07-20T03:01:33;16.70;99.90
435;DHT22;204;48.942;9.256;2023-07-20T03:03:58;16.60;99.90
435;DHT22;204;48.942;9.256;2023-07-20T03:06:24;16.60;99.90
435;DHT22;204;48.942;9.256;2023-07-20T03:08:50;16.50;99.90
435;DHT22;204;48.942;9.256;2023-07-20T03:11:18;16.40;99.90
435;DHT22;204;48.942;9.256;2023-07-20T03:13:44;16.40;99.90
435;DHT22;204;48.942;9.256;2023-07-20T03:16:13;16.40;99.90
435;DHT22;204;48.942;9.256;2023-07-20T03:18:42;16.30;99.90
435;DHT22;204;48.942;9.256;2023-07-20T03:21:10;16.30;99.90
435;DHT22;204;48.942;9.256;2023-07-20T03:23:37;16.30;99.90
435;DHT22;204;48.942;9.256;2023-07-20T03:26:03;16.30;99.90
435;DHT22;204;48.942;9.256;2023-07-20T03:28:28;16.20;99.90
435;DHT22;204;48.942;9.256;2023-07-20T03:30:58;16.20;99.90
435;DHT22;204;48.942;9.256;2023-07-20T03:33:27;16.10;99.90
435;DHT22;204;48.942;9.256;2023-07-20T03:35:53;16.10;99.90
435;DHT22;204;48.942;9.256;2023-07-20T03:38:19;16.10;99.90
435;DHT22;204;48.942;9.256;2023-07-20T03:40:56;16.10;99.90
435;DHT22;204;48.942;9.256;2023-07-20T03:43:23;16.10;99.90
435;DHT22;204;48.942;9.256;2023-07-20T03:45:50;16.10;99.90
435;DHT22;204;48.942;9.256;2023-07-20T03:48:18;16.10;99.90
435;DHT22;204;48.942;9.256;2023-07-20T03:50:48;16.10;99.90
435;DHT22;204;48.942;9.256;2023-07-20T03:53:14;16.00;99.90
435;DHT22;204;48.942;9.256;2023-07-20T03:55:50;16.00;99.90
435;DHT22;204;48.942;9.256;2023-07-20T03:58:16;16.00;99.90
435;DHT22;204;48.942;9.256;2023-07-20T04:00:50;16.00;99.90
435;DHT22;204;48.942;9.256;2023-07-20T04:03:16;16.10;99.90
435;DHT22;204;48.942;9.256;2023-07-20T04:05:42;16.10;99.90
435;DHT22;204;48.942;9.256;2023-07-20T04:08:08;16.10;99.90
435;DHT22;204;48.942;9.256;2023-07-20T04:10:34;16.10;99.90
435;DHT22;204;48.942;9.256;2023-07-20T04:13:01;16.20;99.90
435;DHT22;204;48.942;9.256;2023-07-20T04:15:26;16.20;99.90
435;DHT22;204;48.942;9.256;2023-07-20T04:17:52;16.30;99.90
435;DHT22;204;48.942;9.256;2023-07-20T04:20:17;16.30;99.90
435;DHT22;204;48.942;9.256;2023-07-20T04:22:43;16.40;99.90
435;DHT22;204;48.942;9.256;2023-07-20T04:25:09;16.50;99.90
435;DHT22;204;48.942;9.256;2023-07-20T04:27:35;16.70;99.90
435;DHT22;204;48.942;9.256;2023-07-20T04:30:01;16.80;99.90
435;DHT22;204;48.942;9.256;2023-07-20T04:32:27;17.10;99.90
435;DHT22;204;48.942;9.256;2023-07-20T04:34:53;17.30;99.90
435;DHT22;204;48.942;9.256;2023-07-20T04:37:18;17.80;99.90
435;DHT22;204;48.942;9.256;2023-07-20T04:39:44;18.20;99.90
435;DHT22;204;48.942;9.256;2023-07-20T04:42:09;18.60;99.90
435;DHT22;204;48.942;9.256;2023-07-20T04:44:35;19.00;99.90
435;DHT22;204;48.942;9.256;2023-07-20T04:47:01;19.30;99.90
435;DHT22;204;48.942;9.256;2023-07-20T04:49:26;19.50;99.90
435;DHT22;204;48.942;9.256;2023-07-20T04:51:52;19.70;99.90
435;DHT22;204;48.942;9.256;2023-07-20T04:54:17;19.90;99.90
435;DHT22;204;48.942;9.256;2023-07-20T04:56:44;20.10;99.90
435;DHT22;204;48.942;9.256;2023-07-20T04:59:10;20.30;99.90
435;DHT22;204;48.942;9.256;2023-07-20T05:01:35;20.50;99.90
435;DHT22;204;48.942;9.256;2023-07-20T05:04:01;20.70;99.90
435;DHT22;204;48.942;9.256;2023-07-20T05:06:27;20.70;99.90
435;DHT22;204;48.942;9.256;2023-07-20T05:08:52;20.90;99.90
435;DHT22;204;48.942;9.256;2023-07-20T05:11:18;21.00;99.90
435;DHT22;204;48.942;9.256;2023-07-20T05:13:43;21.10;99.90
435;DHT22;204;48.942;9.256;2023-07-20T05:16:09;21.30;99.90
435;DHT22;204;48.942;9.256;2023-07-20T05:18:34;21.40;99.90
435;DHT22;204;48.942;9.256;2023-07-20T05:21:00;21.50;99.90
435;DHT22;204;48.942;9.256;2023-07-20T05:23:26;21.60;99.90
435;DHT22;204;48.942;9.256;2023-07-20T05:25:58;21.70;99.90
435;DHT22;204;48.942;9.256;2023-07-20T05:28:25;21.90;99.90
435;DHT22;204;48.942;9.256;2023-07-20T05:30:52;22.00;99.90
435;DHT22;204;48.942;9.256;2023-07-20T05:33:18;22.20;99.90
435;DHT22;204;48.942;9.256;2023-07-20T05:35:44;22.40;99.90
435;DHT22;204;48.942;9.256;2023-07-20T05:38:10;22.50;99.90
435;DHT22;204;48.942;9.256;2023-07-20T05:40:40;22.70;99.90
435;DHT22;204;48.942;9.256;2023-07-20T05:43:06;22.80;99.90
435;DHT22;204;48.942;9.256;2023-07-20T05:45:32;23.00;99.90
435;DHT22;204;48.942;9.256;2023-07-20T05:47:57;23.10;99.90
435;DHT22;204;48.942;9.256;2023-07-20T05:50:23;23.30;99.90
435;DHT22;204;48.942;9.256;2023-07-20T05:52:48;23.30;99.90
435;DHT22;204;48.942;9.256;2023-07-20T05:55:14;23.40;99.90
435;DHT22;204;48.942;9.256;2023-07-20T05:57:40;23.50;99.90
435;DHT22;204;48.942;9.256;2023-07-20T06:00:08;23.60;99.90
435;DHT22;204;48.942;9.256;2023-07-20T06:02:34;23.70;99.90
435;DHT22;204;48.942;9.256;2023-07-20T06:05:00;23.80;99.90
435;DHT22;204;48.942;9.256;2023-07-20T06:07:25;23.80;99.90
435;DHT22;204;48.942;9.256;2023-07-20T06:09:51;24.00;99.90
435;DHT22;204;48.942;9.256;2023-07-20T06:12:16;24.10;99.90
435;DHT22;204;48.942;9.256;2023-07-20T06:14:42;24.10;99.90
435;DHT22;204;48.942;9.256;2023-07-20T06:17:08;24.10;99.90
435;DHT22;204;48.942;9.256;2023-07-20T06:19:36;24.20;99.90
435;DHT22;204;48.942;9.256;2023-07-20T06:22:02;24.20;99.90
435;DHT22;204;48.942;9.256;2023-07-20T06:24:28;24.30;99.90
435;DHT22;204;48.942;9.256;2023-07-20T06:26:53;24.40;99.90
435;DHT22;204;48.942;9.256;2023-07-20T06:29:19;24.40;99.90
435;DHT22;204;48.942;9.256;2023-07-20T06:31:45;24.60;99.90
435;DHT22;204;48.942;9.256;2023-07-20T06:34:10;24.70;99.90
435;DHT22;204;48.942;9.256;2023-07-20T06:36:36;24.90;99.90
435;DHT22;204;48.942;9.256;2023-07-20T06:39:01;25.00;99.90
435;DHT22;204;48.942;9.256;2023-07-20T06:41:28;25.10;99.90
435;DHT22;204;48.942;9.256;2023-07-20T06:43:54;25.20;99.90
435;DHT22;204;48.942;9.256;2023-07-20T06:46:26;25.20;99.90
435;DHT22;204;48.942;9.256;2023-07-20T06:48:52;25.20;99.90
435;DHT22;204;48.942;9.256;2023-07-20T06:51:18;25.20;99.90
435;DHT22;204;48.942;9.256;2023-07-20T06:53:43;25.30;99.90
435;DHT22;204;48.942;9.256;2023-07-20T06:56:09;25.30;99.90
435;DHT22;204;48.942;9.256;2023-07-20T06:58:34;25.30;99.90
435;DHT22;204;48.942;9.256;2023-07-20T07:01:08;25.20;99.90
435;DHT22;204;48.942;9.256;2023-07-20T07:03:33;25.10;99.90
435;DHT22;204;48.942;9.256;2023-07-20T07:06:00;25.00;99.90
435;DHT22;204;48.942;9.256;2023-07-20T07:08:25;25.00;99.90
435;DHT22;204;48.942;9.256;2023-07-20T07:10:52;24.90;99.90
435;DHT22;204;48.942;9.256;2023-07-20T07:13:18;24.90;99.90
435;DHT22;204;48.942;9.256;2023-07-20T07:15:44;24.90;99.90
435;DHT22;204;48.942;9.256;2023-07-20T07:18:09;25.10;99.90
435;DHT22;204;48.942;9.256;2023-07-20T07:20:35;25.00;99.90
435;DHT22;204;48.942;9.256;2023-07-20T07:23:00;25.00;99.90
435;DHT22;204;48.942;9.256;2023-07-20T07:25:26;25.10;99.90
435;DHT22;204;48.942;9.256;2023-07-20T07:27:53;25.10;99.90
435;DHT22;204;48.942;9.256;2023-07-20T07:30:19;25.10;99.90
435;DHT22;204;48.942;9.256;2023-07-20T07:32:44;25.10;99.90
435;DHT22;204;48.942;9.256;2023-07-20T07:35:10;25.10;99.90
435;DHT22;204;48.942;9.256;2023-07-20T07:37:36;25.20;99.90
435;DHT22;204;48.942;9.256;2023-07-20T07:40:03;25.20;99.90
435;DHT22;204;48.942;9.256;2023-07-20T07:42:29;25.30;99.90
435;DHT22;204;48.942;9.256;2023-07-20T07:44:54;25.30;99.90
435;DHT22;204;48.942;9.256;2023-07-20T07:47:20;25.40;99.90
435;DHT22;204;48.942;9.256;2023-07-20T07:49:46;25.50;99.90
435;DHT22;204;48.942;9.256;2023-07-20T07:52:11;25.70;99.90
435;DHT22;204;48.942;9.256;2023-07-20T07:54:37;25.70;99.90
435;DHT22;204;48.942;9.256;2023-07-20T07:57:03;25.70;99.90
435;DHT22;204;48.942;9.256;2023-07-20T07:59:28;25.80;99.90
435;DHT22;204;48.942;9.256;2023-07-20T08:01:56;26.00;99.90
435;DHT22;204;48.942;9.256;2023-07-20T08:04:23;26.30;99.90
435;DHT22;204;48.942;9.256;2023-07-20T08:06:49;26.30;99.90
435;DHT22;204;48.942;9.256;2023-07-20T08:09:15;26.30;99.90
435;DHT22;204;48.942;9.256;2023-07-20T08:11:40;26.30;99.90
435;DHT22;204;48.942;9.256;2023-07-20T08:14:06;26.30;99.90
435;DHT22;204;48.942;9.256;2023-07-20T08:16:31;26.50;99.90
435;DHT22;204;48.942;9.256;2023-07-20T08:18:57;26.50;99.90
435;DHT22;204;48.942;9.256;2023-07-20T08:21:22;26.40;99.90
435;DHT22;204;48.942;9.256;2023-07-20T08:23:48;26.40;99.90
435;DHT22;204;48.942;9.256;2023-07-20T08:26:13;26.50;99.90
435;DHT22;204;48.942;9.256;2023-07-20T08:28:43;26.80;99.90
435;DHT22;204;48.942;9.256;2023-07-20T08:31:09;27.10;99.90
435;DHT22;204;48.942;9.256;2023-07-20T08:33:35;27.30;99.90
435;DHT22;204;48.942;9.256;2023-07-20T08:36:01;27.20;99.90
435;DHT22;204;48.942;9.256;2023-07-20T08:38:27;27.00;99.90
435;DHT22;204;48.942;9.256;2023-07-20T08:40:54;26.90;99.90
435;DHT22;204;48.942;9.256;2023-07-20T08:43:22;26.90;99.90
435;DHT22;204;48.942;9.256;2023-07-20T08:45:54;26.80;99.90
435;DHT22;204;48.942;9.256;2023-07-20T08:48:20;26.80;99.90
435;DHT22;204;48.942;9.256;2023-07-20T08:50:50;27.00;99.90
435;DHT22;204;48.942;9.256;2023-07-20T08:53:16;27.10;99.90
435;DHT22;204;48.942;9.256;2023-07-20T08:55:48;27.30;99.90
435;DHT22;204;48.942;9.256;2023-07-20T08:58:15;27.30;99.90
435;DHT22;204;48.942;9.256;2023-07-20T09:00:41;27.30;99.90
435;DHT22;204;48.942;9.256;2023-07-20T09:03:07;27.30;99.90
435;DHT22;204;48.942;9.256;2023-07-20T09:05:33;27.30;99.90
435;DHT22;204;48.942;9.256;2023-07-20T09:08:00;27.20;99.90
435;DHT22;204;48.942;9.256;2023-07-20T09:10:27;27.10;99.90
435;DHT22;204;48.942;9.256;2023-07-20T09:12:53;27.20;99.90
435;DHT22;204;48.942;9.256;2023-07-20T09:15:21;27.30;99.90
435;DHT22;204;48.942;9.256;2023-07-20T09:17:48;27.60;99.90
435;DHT22;204;48.942;9.256;2023-07-20T09:20:16;27.70;99.90
435;DHT22;204;48.942;9.256;2023-07-20T09:22:42;27.80;99.90
435;DHT22;204;48.942;9.256;2023-07-20T09:25:15;27.70;99.90
435;DHT22;204;48.942;9.256;2023-07-20T09:27:42;27.80;99.90
435;DHT22;204;48.942;9.256;2023-07-20T09:30:08;27.50;99.90
435;DHT22;204;48.942;9.256;2023-07-20T09:35:21;27.40;99.90
435;DHT22;204;48.942;9.256;2023-07-20T09:37:51;27.30;99.90
435;DHT22;204;48.942;9.256;2023-07-20T09:40:18;27.30;99.90
435;DHT22;204;48.942;9.256;2023-07-20T09:42:44;27.30;99.90
435;DHT22;204;48.942;9.256;2023-07-20T09:45:10;27.30;99.90
435;DHT22;204;48.942;9.256;2023-07-20T09:47:37;27.10;99.90
435;DHT22;204;48.942;9.256;2023-07-20T09:50:07;27.00;99.90
435;DHT22;204;48.942;9.256;2023-07-20T09:52:38;27.10;99.90
435;DHT22;204;48.942;9.256;2023-07-20T09:55:10;27.10;99.90
435;DHT22;204;48.942;9.256;2023-07-20T09:57:38;27.20;99.90
435;DHT22;204;48.942;9.256;2023-07-20T10:00:05;27.30;99.90
435;DHT22;204;48.942;9.256;2023-07-20T10:02:45;27.40;99.90
435;DHT22;204;48.942;9.256;2023-07-20T10:05:14;27.30;99.90
435;DHT22;204;48.942;9.256;2023-07-20T10:07:50;27.40;99.90
435;DHT22;204;48.942;9.256;2023-07-20T10:10:18;27.50;99.90
435;DHT22;204;48.942;9.256;2023-07-20T10:12:46;27.50;99.90
435;DHT22;204;48.942;9.256;2023-07-20T10:15:40;27.60;99.90
435;DHT22;204;48.942;9.256;2023-07-20T10:18:30;27.90;99.90
435;DHT22;204;48.942;9.256;2023-07-20T10:20:57;28.00;99.90
435;DHT22;204;48.942;9.256;2023-07-20T10:23:24;28.00;99.90
435;DHT22;204;48.942;9.256;2023-07-20T10:25:52;28.10;99.90
435;DHT22;204;48.942;9.256;2023-07-20T10:28:18;28.40;99.90
435;DHT22;204;48.942;9.256;2023-07-20T10:30:44;28.60;99.90
435;DHT22;204;48.942;9.256;2023-07-20T10:33:11;28.80;99.90
435;DHT22;204;48.942;9.256;2023-07-20T10:41:27;28.70;99.90
435;DHT22;204;48.942;9.256;2023-07-20T10:44:04;28.60;99.90
435;DHT22;204;48.942;9.256;2023-07-20T10:49:06;28.50;99.90
435;DHT22;204;48.942;9.256;2023-07-20T10:51:59;28.50;99.90
435;DHT22;204;48.942;9.256;2023-07-20T10:56:56;28.40;99.90
435;DHT22;204;48.942;9.256;2023-07-20T11:01:57;28.40;99.90
435;DHT22;204;48.942;9.256;2023-07-20T11:07:04;28.10;99.90
435;DHT22;204;48.942;9.256;2023-07-20T11:09:34;28.10;99.90
435;DHT22;204;48.942;9.256;2023-07-20T11:12:14;27.90;99.90
435;DHT22;204;48.942;9.256;2023-07-20T11:14:56;27.80;99.90
435;DHT22;204;48.942;9.256;2023-07-20T11:17:29;27.90;99.90
435;DHT22;204;48.942;9.256;2023-07-20T11:20:02;27.80;99.90
435;DHT22;204;48.942;9.256;2023-07-20T11:22:32;27.80;99.90
435;DHT22;204;48.942;9.256;2023-07-20T11:24:58;27.90;99.90
435;DHT22;204;48.942;9.256;2023-07-20T11:27:24;28.00;99.90
435;DHT22;204;48.942;9.256;2023-07-20T11:29:50;28.10;99.90
435;DHT22;204;48.942;9.256;2023-07-20T11:32:23;28.20;99.90
435;DHT22;204;48.942;9.256;2023-07-20T11:34:49;28.30;99.90
435;DHT22;204;48.942;9.256;2023-07-20T11:37:15;28.40;99.90
435;DHT22;204;48.942;9.256;2023-07-20T11:39:41;28.20;99.90
435;DHT22;204;48.942;9.256;2023-07-20T11:42:09;28.20;99.90
435;DHT22;204;48.942;9.256;2023-07-20T11:44:34;27.70;99.90
435;DHT22;204;48.942;9.256;2023-07-20T11:47:04;27.50;99.90
435;DHT22;204;48.942;9.256;2023-07-20T11:49:34;27.40;99.90
435;DHT22;204;48.942;9.256;2023-07-20T11:52:00;27.40;99.90
435;DHT22;204;48.942;9.256;2023-07-20T11:54:26;27.50;99.90
435;DHT22;204;48.942;9.256;2023-07-20T11:56:55;27.50;99.90
435;DHT22;204;48.942;9.256;2023-07-20T11:59:21;27.50;99.90
435;DHT22;204;48.942;9.256;2023-07-20T12:01:47;27.50;99.90
435;DHT22;204;48.942;9.256;2023-07-20T12:04:13;27.60;99.90
435;DHT22;204;48.942;9.256;2023-07-20T12:06:38;27.70;99.90
435;DHT22;204;48.942;9.256;2023-07-20T12:09:05;27.60;99.90
435;DHT22;204;48.942;9.256;2023-07-20T12:11:35;27.40;99.90
435;DHT22;204;48.942;9.256;2023-07-20T12:14:01;27.40;99.90
435;DHT22;204;48.942;9.256;2023-07-20T12:16:27;27.50;99.90
435;DHT22;204;48.942;9.256;2023-07-20T12:19:03;27.70;99.90
435;DHT22;204;48.942;9.256;2023-07-20T12:21:33;27.90;99.90
435;DHT22;204;48.942;9.256;2023-07-20T12:23:59;27.90;99.90
435;DHT22;204;48.942;9.256;2023-07-20T12:26:26;28.00;99.90
435;DHT22;204;48.942;9.256;2023-07-20T12:28:52;28.10;99.90
435;DHT22;204;48.942;9.256;2023-07-20T12:31:18;28.10;99.90
435;DHT22;204;48.942;9.256;2023-07-20T12:33:43;28.10;99.90
435;DHT22;204;48.942;9.256;2023-07-20T12:36:10;28.10;99.90
435;DHT22;204;48.942;9.256;2023-07-20T12:38:36;28.20;99.90
435;DHT22;204;48.942;9.256;2023-07-20T12:41:02;28.30;99.90
435;DHT22;204;48.942;9.256;2023-07-20T12:43:28;28.40;99.90
435;DHT22;204;48.942;9.256;2023-07-20T12:45:55;28.40;99.90
435;DHT22;204;48.942;9.256;2023-07-20T12:48:21;28.40;99.90
435;DHT22;204;48.942;9.256;2023-07-20T12:50:47;28.40;99.90
435;DHT22;204;48.942;9.256;2023-07-20T12:53:13;28.40;99.90
435;DHT22;204;48.942;9.256;2023-07-20T12:55:39;28.40;99.90
435;DHT22;204;48.942;9.256;2023-07-20T12:58:06;28.50;99.90
435;DHT22;204;48.942;9.256;2023-07-20T13:00:32;28.60;99.90
435;DHT22;204;48.942;9.256;2023-07-20T13:02:57;28.70;99.90
435;DHT22;204;48.942;9.256;2023-07-20T13:05:23;28.90;99.90
435;DHT22;204;48.942;9.256;2023-07-20T13:07:49;29.00;99.90
435;DHT22;204;48.942;9.256;2023-07-20T13:10:15;29.10;99.90
435;DHT22;204;48.942;9.256;2023-07-20T13:12:41;29.00;99.90
435;DHT22;204;48.942;9.256;2023-07-20T13:15:09;28.90;99.90
435;DHT22;204;48.942;9.256;2023-07-20T13:17:35;28.90;99.90
435;DHT22;204;48.942;9.256;2023-07-20T13:20:02;28.90;99.90
435;DHT22;204;48.942;9.256;2023-07-20T13:22:30;28.80;99.90
435;DHT22;204;48.942;9.256;2023-07-20T13:24:55;28.70;99.90
435;DHT22;204;48.942;9.256;2023-07-20T13:27:21;28.70;99.90
435;DHT22;204;48.942;9.256;2023-07-20T13:29:47;28.90;99.90
435;DHT22;204;48.942;9.256;2023-07-20T13:32:14;28.90;99.90
435;DHT22;204;48.942;9.256;2023-07-20T13:34:43;28.70;99.90
435;DHT22;204;48.942;9.256;2023-07-20T13:37:09;28.70;99.90
435;DHT22;204;48.942;9.256;2023-07-20T13:39:35;28.70;99.90
435;DHT22;204;48.942;9.256;2023-07-20T13:42:00;28.80;99.90
435;DHT22;204;48.942;9.256;2023-07-20T13:44:33;28.70;99.90
435;DHT22;204;48.942;9.256;2023-07-20T13:46:59;28.60;99.90
435;DHT22;204;48.942;9.256;2023-07-20T13:49:25;28.70;99.90
435;DHT22;204;48.942;9.256;2023-07-20T13:51:51;28.80;99.90
435;DHT22;204;48.942;9.256;2023-07-20T13:54:16;28.90;99.90
435;DHT22;204;48.942;9.256;2023-07-20T13:56:42;28.90;99.90
435;DHT22;204;48.942;9.256;2023-07-20T13:59:07;28.90;99.90
435;DHT22;204;48.942;9.256;2023-07-20T14:01:33;28.90;99.90
435;DHT22;204;48.942;9.256;2023-07-20T14:04:00;28.90;99.90
435;DHT22;204;48.942;9.256;2023-07-20T14:06:26;28.80;99.90
435;DHT22;204;48.942;9.256;2023-07-20T14:08:51;28.70;99.90
435;DHT22;204;48.942;9.256;2023-07-20T14:11:18;28.60;99.90
435;DHT22;204;48.942;9.256;2023-07-20T14:13:44;28.50;99.90
435;DHT22;204;48.942;9.256;2023-07-20T14:16:10;28.40;99.90
435;DHT22;204;48.942;9.256;2023-07-20T14:18:36;28.40;99.90
435;DHT22;204;48.942;9.256;2023-07-20T14:21:02;28.30;99.90
435;DHT22;204;48.942;9.256;2023-07-20T14:23:30;28.30;99.90
435;DHT22;204;48.942;9.256;2023-07-20T14:25:56;28.40;99.90
435;DHT22;204;48.942;9.256;2023-07-20T14:28:21;28.50;99.90
435;DHT22;204;48.942;9.256;2023-07-20T14:30:47;28.50;99.90
435;DHT22;204;48.942;9.256;2023-07-20T14:33:12;28.50;99.90
435;DHT22;204;48.942;9.256;2023-07-20T14:35:38;28.50;99.90
435;DHT22;204;48.942;9.256;2023-07-20T14:38:04;28.60;99.90
435;DHT22;204;48.942;9.256;2023-07-20T14:40:29;28.60;99.90
435;DHT22;204;48.942;9.256;2023-07-20T14:42:58;28.70;99.90
435;DHT22;204;48.942;9.256;2023-07-20T14:45:27;28.60;99.90
435;DHT22;204;48.942;9.256;2023-07-20T14:47:52;28.50;99.90
435;DHT22;204;48.942;9.256;2023-07-20T14:50:22;28.40;99.90
435;DHT22;204;48.942;9.256;2023-07-20T14:52:48;28.40;99.90
435;DHT22;204;48.942;9.256;2023-07-20T14:55:14;28.40;99.90
435;DHT22;204;48.942;9.256;2023-07-20T14:57:39;28.20;99.90
435;DHT22;204;48.942;9.256;2023-07-20T15:00:05;28.10;99.90
435;DHT22;204;48.942;9.256;2023-07-20T15:02:33;28.10;99.90
435;DHT22;204;48.942;9.256;2023-07-20T15:04:59;28.10;99.90
435;DHT22;204;48.942;9.256;2023-07-20T15:07:25;28.20;99.90
435;DHT22;204;48.942;9.256;2023-07-20T15:09:51;28.20;99.90
435;DHT22;204;48.942;9.256;2023-07-20T15:12:16;28.30;99.90
435;DHT22;204;48.942;9.256;2023-07-20T15:14:43;28.40;99.90
435;DHT22;204;48.942;9.256;2023-07-20T15:17:10;28.50;99.90
435;DHT22;204;48.942;9.256;2023-07-20T15:19:36;28.60;99.90
435;DHT22;204;48.942;9.256;2023-07-20T15:22:02;28.70;99.90
435;DHT22;204;48.942;9.256;2023-07-20T15:24:32;28.80;99.90
435;DHT22;204;48.942;9.256;2023-07-20T15:26:58;28.80;99.90
435;DHT22;204;48.942;9.256;2023-07-20T15:29:24;28.80;99.90
435;DHT22;204;48.942;9.256;2023-07-20T15:31:49;28.80;99.90
435;DHT22;204;48.942;9.256;2023-07-20T15:34:15;28.70;99.90
435;DHT22;204;48.942;9.256;2023-07-20T15:36:41;28.60;99.90
435;DHT22;204;48.942;9.256;2023-07-20T15:39:08;28.40;99.90
435;DHT22;204;48.942;9.256;2023-07-20T15:41:33;28.30;99.90
435;DHT22;204;48.942;9.256;2023-07-20T15:44:00;28.20;99.90
435;DHT22;204;48.942;9.256;2023-07-20T15:49:07;27.90;99.90
435;DHT22;204;48.942;9.256;2023-07-20T15:51:34;27.90;99.90
435;DHT22;204;48.942;9.256;2023-07-20T15:54:02;27.90;99.90
435;DHT22;204;48.942;9.256;2023-07-20T15:56:27;27.90;99.90
435;DHT22;204;48.942;9.256;2023-07-20T15:58:53;27.80;99.90
435;DHT22;204;48.942;9.256;2023-07-20T16:01:19;27.80;99.90
435;DHT22;204;48.942;9.256;2023-07-20T16:03:44;27.70;99.90
435;DHT22;204;48.942;9.256;2023-07-20T16:06:10;27.70;99.90
435;DHT22;204;48.942;9.256;2023-07-20T16:08:36;27.70;99.90
435;DHT22;204;48.942;9.256;2023-07-20T16:11:01;27.70;99.90
435;DHT22;204;48.942;9.256;2023-07-20T16:13:28;27.80;99.90
435;DHT22;204;48.942;9.256;2023-07-20T16:15:54;27.80;99.90
435;DHT22;204;48.942;9.256;2023-07-20T16:18:19;27.80;99.90
435;DHT22;204;48.942;9.256;2023-07-20T16:20:45;27.80;99.90
435;DHT22;204;48.942;9.256;2023-07-20T16:23:11;27.90;99.90
435;DHT22;204;48.942;9.256;2023-07-20T16:25:36;27.90;99.90
435;DHT22;204;48.942;9.256;2023-07-20T16:28:03;27.90;99.90
435;DHT22;204;48.942;9.256;2023-07-20T16:30:29;28.00;99.90
435;DHT22;204;48.942;9.256;2023-07-20T16:32:56;28.00;99.90
435;DHT22;204;48.942;9.256;2023-07-20T16:35:22;28.00;99.90
435;DHT22;204;48.942;9.256;2023-07-20T16:37:47;28.10;99.90
435;DHT22;204;48.942;9.256;2023-07-20T16:40:13;28.20;99.90
435;DHT22;204;48.942;9.256;2023-07-20T16:42:41;28.10;99.90
435;DHT22;204;48.942;9.256;2023-07-20T16:45:07;28.10;99.90
435;DHT22;204;48.942;9.256;2023-07-20T16:47:33;28.10;99.90
435;DHT22;204;48.942;9.256;2023-07-20T16:49:59;28.20;99.90
435;DHT22;204;48.942;9.256;2023-07-20T16:52:28;28.20;99.90
435;DHT22;204;48.942;9.256;2023-07-20T16:54:53;28.20;99.90
435;DHT22;204;48.942;9.256;2023-07-20T16:57:20;28.40;99.90
435;DHT22;204;48.942;9.256;2023-07-20T16:59:45;28.40;99.90
435;DHT22;204;48.942;9.256;2023-07-20T17:02:11;28.50;99.90
435;DHT22;204;48.942;9.256;2023-07-20T17:04:36;28.40;99.90